Huvudsida
METAR-TAF:

METAR-TAF

Flygplatser :

Rønne, Danmark

Bornholms flygplats

latitud: 55-04N, longitud: 014-45E, höjd: 16 m

Aktuellt väderrapport

Denna rapport gjordes för 34 minuter sedan, klockan 17:50 UTC
Vind 9 kt från ost/sydost
Temperatur 8°C
Fuktighet 76%
Tryck 1014 hPa
Sikt 10 km eller mer

METAR: EKRN 221750Z AUTO 12009KT 9999NDV FEW230/// 08/04 Q1014

Tid: 20:24 (18:24 UTC)

Väderprognos

Denna rapport gjordes för 1 timme och 10 minuter sedan, klockan 17:14 UTC
Prognos gäller från 22 kl. 18 UTC till 22 kl. 22 UTC
Vind 8 kt från ost/sydost
Sikt 10 km eller mer
Inga moln under 1 500 m eller inga cumulonimbus

TAF: EKRN 221714Z 2218/2222 12008KT CAVOK

Aktuella väderrapporter och prognoser från 4000 flygplatser (METAR- och TAF-rapporter).

De tillgängliga stationerna syns som gula och röda prickar på kartan.

För musen över prickarna för att se namnen på stationerna.

Klicka sedan för att få väderrapporter och prognoser.

För att ändra kartan: Klicka på de gröna knapparna med ett svart kors på för att zooma in; den gröna knappen med ett streck på för att zooma ut; eller på de gröna pilarna för angränsande kartor.


METAR-TAF: